createdAt,value
2022-10-03T00:00:11.311Z,18.10
2022-10-03T00:03:34.093Z,18.10
2022-10-03T00:06:42.668Z,18.10
2022-10-03T00:09:57.650Z,18.10
2022-10-03T00:13:03.838Z,18.10
2022-10-03T00:16:09.982Z,18.10
2022-10-03T00:19:12.287Z,18.10
2022-10-03T00:22:18.372Z,18.10
2022-10-03T00:25:27.428Z,18.10
2022-10-03T00:28:44.558Z,18.10
2022-10-03T00:31:46.590Z,18.10
2022-10-03T00:34:56.044Z,18.10
2022-10-03T00:38:05.567Z,18.10
2022-10-03T00:41:35.306Z,18.10
2022-10-03T00:44:52.242Z,18.10
2022-10-03T00:48:03.585Z,18.10
2022-10-03T00:51:20.280Z,18.10
2022-10-03T00:54:45.897Z,18.10
2022-10-03T00:58:01.522Z,18.10
2022-10-03T01:01:03.328Z,18.10
2022-10-03T01:04:10.879Z,18.10
2022-10-03T01:07:22.968Z,18.10
2022-10-03T01:10:22.203Z,18.10
2022-10-03T01:13:29.201Z,18.10
2022-10-03T01:16:36.150Z,18.10
2022-10-03T01:19:47.065Z,18.10
2022-10-03T01:23:07.484Z,18.10
2022-10-03T01:26:12.281Z,18.10
2022-10-03T01:29:28.267Z,18.00
2022-10-03T01:32:29.610Z,18.10
2022-10-03T01:35:30.840Z,18.10
2022-10-03T01:38:28.437Z,18.10
2022-10-03T01:41:29.567Z,18.10
2022-10-03T01:44:30.864Z,18.10
2022-10-03T01:47:28.702Z,18.10
2022-10-03T01:50:29.234Z,18.10
2022-10-03T01:53:30.580Z,18.10
2022-10-03T01:56:30.974Z,18.10
2022-10-03T01:59:34.796Z,18.10
2022-10-03T02:02:35.134Z,18.10
2022-10-03T02:05:39.948Z,18.10
2022-10-03T02:08:47.399Z,18.10
2022-10-03T02:11:54.734Z,18.10
2022-10-03T02:14:56.251Z,18.10
2022-10-03T02:17:57.664Z,18.10
2022-10-03T02:20:55.078Z,18.10
2022-10-03T02:23:49.995Z,18.10
2022-10-03T02:27:17.556Z,18.10
2022-10-03T02:30:20.926Z,18.10
2022-10-03T02:33:49.265Z,18.10
2022-10-03T02:37:10.437Z,18.10
2022-10-03T02:40:48.470Z,18.10
2022-10-03T02:44:18.093Z,18.10
2022-10-03T02:47:44.717Z,18.10
2022-10-03T02:51:10.834Z,18.00
2022-10-03T02:54:30.211Z,18.10
2022-10-03T02:58:12.079Z,18.10
2022-10-03T03:01:34.849Z,18.00
2022-10-03T03:05:15.111Z,18.00
2022-10-03T03:08:29.699Z,18.00
2022-10-03T03:12:03.039Z,18.10
2022-10-03T03:15:41.917Z,18.10
2022-10-03T03:18:38.394Z,18.10
2022-10-03T03:21:42.828Z,18.10
2022-10-03T03:24:50.477Z,18.10
2022-10-03T03:27:58.499Z,18.10
2022-10-03T03:31:02.389Z,18.10
2022-10-03T03:34:03.011Z,18.10
2022-10-03T03:37:02.845Z,18.00
2022-10-03T03:40:21.431Z,18.00
2022-10-03T03:43:37.729Z,18.00
2022-10-03T03:46:44.029Z,18.00
2022-10-03T03:49:59.108Z,18.10
2022-10-03T03:53:10.590Z,18.00
2022-10-03T03:56:22.134Z,18.00
2022-10-03T03:59:33.099Z,18.00
2022-10-03T04:02:38.348Z,18.00
2022-10-03T04:05:45.278Z,18.00
2022-10-03T04:08:59.083Z,18.00
2022-10-03T04:12:10.278Z,18.00
2022-10-03T04:15:22.724Z,18.00
2022-10-03T04:18:58.663Z,18.00
2022-10-03T04:22:30.148Z,18.00
2022-10-03T04:25:40.654Z,18.00
2022-10-03T04:29:05.377Z,18.00
2022-10-03T04:32:10.637Z,18.00
2022-10-03T04:35:26.108Z,18.00
2022-10-03T04:38:27.757Z,18.00
2022-10-03T04:41:29.892Z,18.00
2022-10-03T04:44:44.442Z,18.00
2022-10-03T04:47:48.041Z,18.00
2022-10-03T04:50:50.716Z,18.00
2022-10-03T04:53:54.004Z,18.00
2022-10-03T04:56:56.678Z,18.00
2022-10-03T04:59:57.656Z,18.00
2022-10-03T05:02:59.003Z,18.00
2022-10-03T05:05:57.707Z,18.00
2022-10-03T05:09:00.519Z,18.00
2022-10-03T05:12:06.877Z,18.00
2022-10-03T05:15:26.071Z,18.00
2022-10-03T05:18:26.998Z,18.00
2022-10-03T05:21:32.239Z,18.00
2022-10-03T05:24:38.005Z,18.00
2022-10-03T05:27:41.499Z,18.00
2022-10-03T05:30:44.751Z,18.00
2022-10-03T05:33:45.588Z,18.00
2022-10-03T05:36:56.259Z,18.00
2022-10-03T05:39:57.724Z,18.00
2022-10-03T05:43:23.688Z,18.00
2022-10-03T05:46:33.787Z,18.00
2022-10-03T05:49:56.033Z,18.00
2022-10-03T05:53:02.073Z,18.00
2022-10-03T05:56:09.679Z,18.00
2022-10-03T05:59:44.301Z,18.00
2022-10-03T06:02:54.340Z,18.00
2022-10-03T06:06:01.577Z,18.00
2022-10-03T06:09:32.133Z,18.00
2022-10-03T06:12:33.081Z,18.00
2022-10-03T06:16:02.246Z,18.00
2022-10-03T06:19:11.618Z,18.00
2022-10-03T06:22:43.811Z,18.00
2022-10-03T06:26:26.593Z,18.00
2022-10-03T06:29:43.253Z,18.00
2022-10-03T06:33:10.471Z,18.00
2022-10-03T06:36:30.333Z,18.00
2022-10-03T06:39:55.738Z,18.00
2022-10-03T06:43:24.225Z,18.00
2022-10-03T06:46:47.791Z,18.00
2022-10-03T06:50:25.535Z,18.00
2022-10-03T06:53:37.428Z,18.00
2022-10-03T06:57:07.671Z,18.00
2022-10-03T07:00:15.652Z,18.00
2022-10-03T07:03:57.996Z,18.00
2022-10-03T07:07:23.451Z,18.00
2022-10-03T07:10:32.524Z,18.00
2022-10-03T07:13:56.504Z,18.00
2022-10-03T07:17:11.128Z,18.00
2022-10-03T07:20:23.169Z,18.00
2022-10-03T07:23:49.274Z,18.00
2022-10-03T07:27:22.419Z,18.00
2022-10-03T07:30:18.972Z,18.10
2022-10-03T07:33:47.472Z,18.10
2022-10-03T07:37:20.668Z,18.10
2022-10-03T07:40:42.898Z,18.20
2022-10-03T07:44:01.425Z,18.30
2022-10-03T07:47:32.623Z,18.40
2022-10-03T07:50:51.336Z,18.50
2022-10-03T07:54:32.762Z,18.60
2022-10-03T07:57:53.864Z,18.70
2022-10-03T08:01:07.851Z,18.80
2022-10-03T08:04:45.206Z,18.90
2022-10-03T08:08:09.305Z,19.00
2022-10-03T08:11:27.879Z,19.10
2022-10-03T08:14:33.081Z,19.10
2022-10-03T08:18:06.439Z,19.20
2022-10-03T08:21:02.028Z,19.30
2022-10-03T08:24:29.456Z,19.40
2022-10-03T08:27:41.071Z,19.50
2022-10-03T08:30:52.571Z,19.60
2022-10-03T08:34:09.094Z,19.60
2022-10-03T08:37:28.721Z,19.70
2022-10-03T08:40:58.086Z,19.80
2022-10-03T08:44:25.020Z,19.90
2022-10-03T08:47:59.689Z,20.00
2022-10-03T08:51:19.453Z,20.10
2022-10-03T08:54:35.501Z,20.20
2022-10-03T08:57:57.047Z,20.20
2022-10-03T09:01:13.342Z,20.20
2022-10-03T09:04:45.597Z,20.20
2022-10-03T09:08:14.342Z,20.20
2022-10-03T09:11:45.951Z,20.20
2022-10-03T09:15:01.651Z,20.30
2022-10-03T09:18:29.340Z,20.40
2022-10-03T09:21:51.631Z,20.40
2022-10-03T09:25:16.380Z,20.50
2022-10-03T09:28:35.326Z,20.60
2022-10-03T09:32:14.612Z,20.70
2022-10-03T09:35:35.669Z,20.70
2022-10-03T09:38:49.711Z,20.70
2022-10-03T09:42:11.208Z,20.60
2022-10-03T09:45:22.661Z,20.60
2022-10-03T09:48:39.319Z,20.50
2022-10-03T09:51:49.961Z,20.50
2022-10-03T09:55:02.546Z,20.40
2022-10-03T09:58:15.429Z,20.40
2022-10-03T10:01:27.093Z,20.40
2022-10-03T10:04:54.855Z,20.30
2022-10-03T10:08:28.967Z,20.30
2022-10-03T10:11:34.935Z,20.30
2022-10-03T10:14:58.285Z,20.30
2022-10-03T10:18:42.569Z,20.30
2022-10-03T10:22:09.011Z,20.30
2022-10-03T10:25:32.867Z,20.30
2022-10-03T10:28:53.098Z,20.30
2022-10-03T10:32:24.738Z,20.40
2022-10-03T10:36:01.154Z,20.50
2022-10-03T10:39:41.159Z,20.60
2022-10-03T10:43:22.450Z,20.60
2022-10-03T10:46:36.672Z,20.60
2022-10-03T10:50:06.767Z,20.60
2022-10-03T10:53:39.976Z,20.50
2022-10-03T10:57:07.767Z,20.60
2022-10-03T11:00:19.993Z,20.60
2022-10-03T11:03:58.485Z,20.60
2022-10-03T11:07:20.710Z,20.70
2022-10-03T11:10:35.215Z,20.70
2022-10-03T11:14:02.538Z,20.80
2022-10-03T11:17:23.950Z,20.90
2022-10-03T11:20:57.679Z,20.80
2022-10-03T11:24:23.544Z,20.80
2022-10-03T11:27:59.734Z,20.70
2022-10-03T11:31:29.995Z,20.70
2022-10-03T11:35:19.693Z,20.60
2022-10-03T11:38:19.423Z,20.50
2022-10-03T11:41:23.639Z,20.50
2022-10-03T11:44:30.937Z,20.50
2022-10-03T11:47:46.252Z,20.60
2022-10-03T11:50:49.400Z,20.70
2022-10-03T11:53:46.952Z,20.90
2022-10-03T11:56:43.466Z,20.90
2022-10-03T11:59:55.418Z,20.90
2022-10-03T12:03:15.392Z,20.90
2022-10-03T12:06:35.048Z,20.80
2022-10-03T12:09:39.398Z,20.80
2022-10-03T12:12:42.087Z,20.80
2022-10-03T12:15:39.125Z,20.80
2022-10-03T12:18:52.378Z,20.70
2022-10-03T12:21:54.664Z,20.70
2022-10-03T12:24:50.809Z,20.60
2022-10-03T12:27:51.783Z,20.60
2022-10-03T12:30:50.309Z,20.50
2022-10-03T12:33:53.334Z,20.40
2022-10-03T12:36:54.077Z,20.40
2022-10-03T12:39:54.776Z,20.40
2022-10-03T12:42:56.544Z,20.40
2022-10-03T12:45:55.534Z,20.30
2022-10-03T12:48:59.536Z,20.20
2022-10-03T12:51:57.606Z,20.20
2022-10-03T12:55:02.894Z,20.20
2022-10-03T12:58:04.092Z,20.20
2022-10-03T13:01:05.947Z,20.20
2022-10-03T13:04:03.222Z,20.20
2022-10-03T13:07:10.223Z,20.20
2022-10-03T13:10:17.063Z,20.20
2022-10-03T13:13:27.781Z,20.20
2022-10-03T13:16:26.811Z,20.20
2022-10-03T13:19:25.080Z,20.20
2022-10-03T13:22:30.732Z,20.20
2022-10-03T13:25:31.860Z,20.10
2022-10-03T13:28:32.233Z,20.10
2022-10-03T13:31:29.410Z,20.10
2022-10-03T13:34:28.587Z,20.10
2022-10-03T13:37:31.429Z,20.00
2022-10-03T13:40:30.456Z,20.00
2022-10-03T13:43:37.681Z,20.00
2022-10-03T13:46:38.265Z,20.00
2022-10-03T13:49:37.057Z,20.00
2022-10-03T13:52:39.491Z,19.90
2022-10-03T13:55:44.623Z,19.90
2022-10-03T13:58:50.302Z,19.90
2022-10-03T14:01:56.596Z,19.90
2022-10-03T14:05:11.846Z,19.90
2022-10-03T14:08:14.852Z,19.80
2022-10-03T14:11:23.273Z,19.80
2022-10-03T14:14:34.313Z,19.80
2022-10-03T14:17:37.042Z,19.80
2022-10-03T14:20:39.998Z,19.80
2022-10-03T14:23:39.269Z,19.70
2022-10-03T14:26:39.244Z,19.70
2022-10-03T14:29:40.168Z,19.70
2022-10-03T14:32:47.809Z,19.80
2022-10-03T14:35:54.134Z,19.80
2022-10-03T14:39:02.965Z,19.70
2022-10-03T14:42:28.865Z,19.70
2022-10-03T14:45:29.271Z,19.70
2022-10-03T14:48:28.563Z,19.70
2022-10-03T14:51:28.748Z,19.70
2022-10-03T14:54:25.157Z,19.70
2022-10-03T14:57:29.772Z,19.60
2022-10-03T15:00:27.103Z,19.60
2022-10-03T15:03:24.903Z,19.60
2022-10-03T15:06:36.142Z,19.60
2022-10-03T15:09:33.941Z,19.60
2022-10-03T15:12:31.918Z,19.60
2022-10-03T15:15:28.874Z,19.60
2022-10-03T15:18:24.840Z,19.60
2022-10-03T15:21:19.599Z,19.60
2022-10-03T15:24:25.132Z,19.60
2022-10-03T15:27:22.274Z,19.60
2022-10-03T15:30:22.278Z,19.50
2022-10-03T15:33:18.660Z,19.50
2022-10-03T15:36:17.786Z,19.50
2022-10-03T15:39:22.570Z,19.50
2022-10-03T15:42:26.408Z,19.50
2022-10-03T15:45:27.194Z,19.60
2022-10-03T15:48:22.818Z,19.50
2022-10-03T15:51:20.934Z,19.50
2022-10-03T15:54:21.695Z,19.50
2022-10-03T15:57:22.070Z,19.50
2022-10-03T16:00:28.289Z,19.50
2022-10-03T16:03:28.182Z,19.50
2022-10-03T16:06:24.026Z,19.50
2022-10-03T16:09:26.254Z,19.50
2022-10-03T16:13:00.948Z,19.40
2022-10-03T16:16:14.412Z,19.50
2022-10-03T16:19:24.294Z,19.40
2022-10-03T16:22:23.825Z,19.40
2022-10-03T16:25:22.575Z,19.40
2022-10-03T16:28:20.178Z,19.40
2022-10-03T16:31:20.784Z,19.40
2022-10-03T16:34:16.455Z,19.40
2022-10-03T16:37:18.951Z,19.40
2022-10-03T16:40:22.594Z,19.40
2022-10-03T16:43:18.948Z,19.40
2022-10-03T16:46:19.127Z,19.40
2022-10-03T16:49:46.145Z,19.40
2022-10-03T16:52:41.262Z,19.40
2022-10-03T16:55:41.617Z,19.40
2022-10-03T16:58:40.255Z,19.40
2022-10-03T17:01:37.405Z,19.40
2022-10-03T17:04:34.544Z,19.40
2022-10-03T17:07:30.718Z,19.40
2022-10-03T17:10:35.935Z,19.40
2022-10-03T17:13:40.808Z,19.40
2022-10-03T17:16:44.060Z,19.30
2022-10-03T17:19:41.963Z,19.30
2022-10-03T17:22:40.547Z,19.30
2022-10-03T17:25:42.525Z,19.40
2022-10-03T17:28:44.973Z,19.30
2022-10-03T17:31:45.248Z,19.30
2022-10-03T17:34:43.829Z,19.30
2022-10-03T17:37:56.787Z,19.30
2022-10-03T17:40:56.823Z,19.30
2022-10-03T17:44:04.790Z,19.30
2022-10-03T17:47:06.510Z,19.30
2022-10-03T17:50:04.775Z,19.30
2022-10-03T17:53:00.040Z,19.30
2022-10-03T17:55:57.073Z,19.30
2022-10-03T17:58:54.628Z,19.30
2022-10-03T18:01:52.902Z,19.20
2022-10-03T18:04:49.201Z,19.20
2022-10-03T18:07:44.144Z,19.30
2022-10-03T18:10:43.109Z,19.30
2022-10-03T18:13:41.229Z,19.20
2022-10-03T18:16:37.567Z,19.20
2022-10-03T18:19:48.234Z,19.20
2022-10-03T18:22:48.922Z,19.20
2022-10-03T18:26:19.140Z,19.20
2022-10-03T18:29:25.089Z,19.20
2022-10-03T18:32:25.285Z,19.20
2022-10-03T18:35:22.140Z,19.20
2022-10-03T18:38:20.379Z,19.20
2022-10-03T18:41:16.163Z,19.20
2022-10-03T18:44:17.597Z,19.20
2022-10-03T18:47:19.420Z,19.20
2022-10-03T18:50:25.836Z,19.20
2022-10-03T18:53:26.876Z,19.20
2022-10-03T18:56:24.092Z,19.20
2022-10-03T18:59:24.285Z,19.20
2022-10-03T19:02:25.851Z,19.20
2022-10-03T19:05:23.591Z,19.20
2022-10-03T19:08:22.500Z,19.20
2022-10-03T19:11:22.618Z,19.20
2022-10-03T19:14:19.425Z,19.20
2022-10-03T19:17:26.513Z,19.20
2022-10-03T19:20:26.284Z,19.10
2022-10-03T19:23:26.423Z,19.20
2022-10-03T19:26:26.645Z,19.10
2022-10-03T19:29:24.401Z,19.10
2022-10-03T19:32:23.946Z,19.10
2022-10-03T19:35:21.796Z,19.10
2022-10-03T19:38:18.564Z,19.10
2022-10-03T19:41:23.322Z,19.10
2022-10-03T19:44:18.639Z,19.10
2022-10-03T19:47:17.632Z,19.10
2022-10-03T19:50:18.518Z,19.10
2022-10-03T19:53:16.749Z,19.10
2022-10-03T19:56:16.790Z,19.10
2022-10-03T19:59:17.545Z,19.10
2022-10-03T20:02:12.115Z,19.10
2022-10-03T20:05:06.202Z,19.10
2022-10-03T20:08:04.150Z,19.10
2022-10-03T20:11:14.154Z,19.10
2022-10-03T20:14:08.081Z,19.10
2022-10-03T20:17:05.123Z,19.10
2022-10-03T20:20:05.054Z,19.00
2022-10-03T20:23:05.379Z,19.00
2022-10-03T20:26:03.102Z,19.10
2022-10-03T20:29:14.803Z,19.00
2022-10-03T20:32:16.152Z,19.10
2022-10-03T20:35:15.844Z,19.00
2022-10-03T20:38:23.184Z,19.00
2022-10-03T20:41:23.518Z,19.00
2022-10-03T20:44:27.984Z,19.00
2022-10-03T20:47:47.422Z,19.00
2022-10-03T20:50:46.713Z,19.00
2022-10-03T20:53:43.398Z,19.00
2022-10-03T20:56:46.193Z,19.00
2022-10-03T20:59:47.181Z,19.00
2022-10-03T21:02:43.918Z,19.00
2022-10-03T21:05:40.263Z,19.00
2022-10-03T21:08:37.732Z,19.00
2022-10-03T21:11:32.091Z,19.00
2022-10-03T21:14:28.652Z,19.00
2022-10-03T21:17:23.091Z,19.00
2022-10-03T21:20:20.406Z,19.00
2022-10-03T21:23:18.393Z,19.00
2022-10-03T21:26:13.524Z,19.00
2022-10-03T21:29:18.663Z,19.00
2022-10-03T21:32:25.065Z,19.00
2022-10-03T21:35:30.206Z,19.00
2022-10-03T21:38:27.699Z,19.00
2022-10-03T21:41:29.256Z,19.00
2022-10-03T21:44:37.953Z,19.00
2022-10-03T21:47:42.361Z,19.00
2022-10-03T21:50:45.761Z,19.00
2022-10-03T21:53:47.519Z,19.00
2022-10-03T21:56:56.797Z,18.90
2022-10-03T22:00:11.052Z,19.00
2022-10-03T22:03:13.834Z,18.90
2022-10-03T22:06:17.135Z,19.00
2022-10-03T22:09:15.153Z,18.90
2022-10-03T22:12:08.484Z,18.90
2022-10-03T22:15:07.558Z,18.90
2022-10-03T22:18:04.652Z,18.90
2022-10-03T22:21:03.947Z,18.90
2022-10-03T22:24:06.919Z,18.90
2022-10-03T22:27:08.730Z,18.90
2022-10-03T22:30:06.668Z,18.90
2022-10-03T22:33:12.062Z,18.90
2022-10-03T22:36:10.095Z,18.90
2022-10-03T22:39:10.683Z,18.90
2022-10-03T22:42:07.345Z,18.90
2022-10-03T22:45:03.720Z,18.90
2022-10-03T22:47:58.823Z,18.90
2022-10-03T22:50:53.892Z,18.90
2022-10-03T22:53:51.554Z,18.90
2022-10-03T22:56:49.927Z,18.90
2022-10-03T22:59:47.816Z,18.90
2022-10-03T23:02:47.825Z,18.90
2022-10-03T23:06:22.999Z,18.90
2022-10-03T23:09:23.711Z,18.90
2022-10-03T23:12:20.762Z,18.90
2022-10-03T23:15:16.649Z,18.90
2022-10-03T23:18:34.864Z,18.90
2022-10-03T23:21:29.202Z,18.90
2022-10-03T23:24:28.033Z,18.90
2022-10-03T23:27:47.619Z,18.90
2022-10-03T23:30:51.825Z,18.90
2022-10-03T23:33:51.028Z,18.90
2022-10-03T23:37:01.214Z,18.90
2022-10-03T23:40:21.077Z,18.90
2022-10-03T23:43:30.155Z,18.90
2022-10-03T23:46:26.194Z,18.90
2022-10-03T23:49:21.215Z,18.90
2022-10-03T23:52:20.571Z,18.90
2022-10-03T23:55:20.819Z,18.80
2022-10-03T23:58:27.457Z,18.80
